Terminal Aerodrome Forecast
Issued by NWS

Home | Current Version | Previous Version | Text Only | Print | Product List | Glossary On
Versions: 1 2 3 4 5 6 7 8 9 10 11 12 13 14 15 16 17 18 19 20 21 22 23 24
000
FTUS42 KFFC 191559 AAA
TAFRYY
TAF AMD
KRYY 191559Z 1916/2012 11007KT 3SM -DZ BR OVC003
     FM191800 13007KT P6SM BKN008
     FM192100 13007KT P6SM BKN025 OVC045
     FM200200 14005KT P6SM BKN015
     FM201000 14006KT 2SM BR BKN006=

USA.gov is the U.S. government's official web portal to all federal, state and local government web resources and services.